Aérodrome :
LOGIN :

S'inscrire | Disclaimer

   EN    FR    IT 

 










Légende :    VFR   VFR Marginal   IFR   IFR Intensif   IFR Très Intensif
Visi : 
Plafond : 
>= 8 km
>= 3000ft
5 à 8 km
1000 à 3000 ft
1500m à 5 km
500 à 1000 ft
800 à 1500m
200 à 500 ft
< 800m
< 200 ft
Symboles :   Orages  Brouillard  Fortes neiges  Fortes précipitations  Vent > 20 kt
SIGMETs :   Divers  Orages  Givrage  Turbulence  Onde Orograph.  Cendres Volcan.







- Altitude de l'aérodrome : 335 ft
- Code IATA : BEG


LYBE - Belgrade Nikola Tesla

DERNIER METAR :
  • 260800Z 14006KT CAVOK 24/13 Q1017 NOSIG

METARs EXPIRÉS :
  • 260730Z 15006KT CAVOK 22/13 Q1017 NOSIG
  • 260700Z 13004KT CAVOK 21/12 Q1017 NOSIG
  • 260630Z 12004KT CAVOK 20/12 Q1017 NOSIG
  • 260600Z 12006KT CAVOK 19/11 Q1017 NOSIG
  • 260530Z 14006KT CAVOK 17/12 Q1017 NOSIG

TAF TAF LYBE
Valide du 26 à 06h jusqu'au 27 à 06h UTC


260500Z 2606/2706 13004KT CAVOK TX30/2613Z TN13/2704Z
TEMPO 2610/2615 12014KT
TEMPO 2703/2706 SHRA SCT030TCU
Pas de NOTAMs connus pour ce terrain.



MET'MAP, la Météo Aéronautique d'un coup d'oeil ! - Copyright ORBIFLY Décembre 2007 - Disclaimer

ORBIFLY MET'MAP TEAM :

Programmation & Développement : Alexandra Zaïnal
Conception & Développement : Baudouin d'Aumeries
Co-Programmation & Développement : Marc-Olivier Méhu
Soutien technique & logistique : Manuel Goepfert

Contact : metmap@orbifly.com




SOURCES & CREDITS :

   NOAA